sensor_id;sensor_type;location;lat;lon;timestamp;P1;durP1;ratioP1;P2;durP2;ratioP2
67508;SDS011;54354;44.724;11.284;2023-02-15T00:01:15;126.28;;;57.05;;
67508;SDS011;54354;44.724;11.284;2023-02-15T00:03:41;123.88;;;57.05;;
67508;SDS011;54354;44.724;11.284;2023-02-15T00:06:06;120.07;;;54.90;;
67508;SDS011;54354;44.724;11.284;2023-02-15T00:08:32;123.32;;;55.70;;
67508;SDS011;54354;44.724;11.284;2023-02-15T00:11:31;116.13;;;55.00;;
67508;SDS011;54354;44.724;11.284;2023-02-15T00:14:11;118.75;;;58.28;;
67508;SDS011;54354;44.724;11.284;2023-02-15T00:16:39;125.45;;;58.72;;
67508;SDS011;54354;44.724;11.284;2023-02-15T00:19:06;122.43;;;56.55;;
67508;SDS011;54354;44.724;11.284;2023-02-15T00:21:33;120.43;;;56.45;;
67508;SDS011;54354;44.724;11.284;2023-02-15T00:24:00;121.18;;;55.80;;
67508;SDS011;54354;44.724;11.284;2023-02-15T00:26:27;123.75;;;58.45;;
67508;SDS011;54354;44.724;11.284;2023-02-15T00:28:53;116.53;;;55.63;;
67508;SDS011;54354;44.724;11.284;2023-02-15T00:31:20;122.00;;;57.65;;
67508;SDS011;54354;44.724;11.284;2023-02-15T00:33:46;126.63;;;56.38;;
67508;SDS011;54354;44.724;11.284;2023-02-15T00:36:12;124.88;;;57.63;;
67508;SDS011;54354;44.724;11.284;2023-02-15T00:38:38;121.30;;;57.38;;
67508;SDS011;54354;44.724;11.284;2023-02-15T00:41:04;120.90;;;55.58;;
67508;SDS011;54354;44.724;11.284;2023-02-15T00:43:31;117.20;;;54.58;;
67508;SDS011;54354;44.724;11.284;2023-02-15T00:45:58;118.30;;;56.15;;
67508;SDS011;54354;44.724;11.284;2023-02-15T00:48:24;110.80;;;54.05;;
67508;SDS011;54354;44.724;11.284;2023-02-15T00:50:54;119.80;;;58.13;;
67508;SDS011;54354;44.724;11.284;2023-02-15T00:53:24;118.78;;;57.13;;
67508;SDS011;54354;44.724;11.284;2023-02-15T00:55:51;113.55;;;56.50;;
67508;SDS011;54354;44.724;11.284;2023-02-15T00:58:17;122.10;;;56.15;;
67508;SDS011;54354;44.724;11.284;2023-02-15T01:00:44;117.88;;;56.72;;
67508;SDS011;54354;44.724;11.284;2023-02-15T01:03:12;121.05;;;58.13;;
67508;SDS011;54354;44.724;11.284;2023-02-15T01:05:38;123.82;;;56.92;;
67508;SDS011;54354;44.724;11.284;2023-02-15T01:08:04;121.30;;;56.13;;
67508;SDS011;54354;44.724;11.284;2023-02-15T01:10:29;120.32;;;57.10;;
67508;SDS011;54354;44.724;11.284;2023-02-15T01:12:55;122.88;;;58.72;;
67508;SDS011;54354;44.724;11.284;2023-02-15T01:15:21;114.05;;;55.78;;
67508;SDS011;54354;44.724;11.284;2023-02-15T01:17:47;117.53;;;57.22;;
67508;SDS011;54354;44.724;11.284;2023-02-15T01:20:20;111.25;;;54.53;;
67508;SDS011;54354;44.724;11.284;2023-02-15T01:22:48;114.85;;;54.75;;
67508;SDS011;54354;44.724;11.284;2023-02-15T01:25:18;116.40;;;55.58;;
67508;SDS011;54354;44.724;11.284;2023-02-15T01:27:45;119.75;;;57.78;;
67508;SDS011;54354;44.724;11.284;2023-02-15T01:30:12;112.28;;;54.47;;
67508;SDS011;54354;44.724;11.284;2023-02-15T01:32:38;118.60;;;55.50;;
67508;SDS011;54354;44.724;11.284;2023-02-15T01:35:05;118.35;;;57.75;;
67508;SDS011;54354;44.724;11.284;2023-02-15T01:37:31;122.70;;;55.72;;
67508;SDS011;54354;44.724;11.284;2023-02-15T01:39:57;123.43;;;57.05;;
67508;SDS011;54354;44.724;11.284;2023-02-15T01:42:23;113.63;;;55.65;;
67508;SDS011;54354;44.724;11.284;2023-02-15T01:44:53;116.45;;;55.25;;
67508;SDS011;54354;44.724;11.284;2023-02-15T01:50:21;113.65;;;54.33;;
67508;SDS011;54354;44.724;11.284;2023-02-15T01:52:48;108.30;;;53.83;;
67508;SDS011;54354;44.724;11.284;2023-02-15T01:55:16;105.13;;;53.35;;
67508;SDS011;54354;44.724;11.284;2023-02-15T01:57:43;109.60;;;54.05;;
67508;SDS011;54354;44.724;11.284;2023-02-15T02:00:10;108.63;;;53.47;;
67508;SDS011;54354;44.724;11.284;2023-02-15T02:02:40;113.97;;;54.75;;
67508;SDS011;54354;44.724;11.284;2023-02-15T02:05:08;106.25;;;52.20;;
67508;SDS011;54354;44.724;11.284;2023-02-15T02:07:35;103.50;;;53.47;;
67508;SDS011;54354;44.724;11.284;2023-02-15T02:10:04;107.53;;;53.25;;
67508;SDS011;54354;44.724;11.284;2023-02-15T02:12:32;107.30;;;52.15;;
67508;SDS011;54354;44.724;11.284;2023-02-15T02:14:59;112.80;;;53.95;;
67508;SDS011;54354;44.724;11.284;2023-02-15T02:23:24;103.25;;;51.00;;
67508;SDS011;54354;44.724;11.284;2023-02-15T02:25:59;104.88;;;51.58;;
67508;SDS011;54354;44.724;11.284;2023-02-15T02:42:50;99.45;;;50.13;;
67508;SDS011;54354;44.724;11.284;2023-02-15T02:45:21;108.55;;;52.42;;
67508;SDS011;54354;44.724;11.284;2023-02-15T02:50:28;104.05;;;49.58;;
67508;SDS011;54354;44.724;11.284;2023-02-15T02:52:55;102.03;;;50.42;;
67508;SDS011;54354;44.724;11.284;2023-02-15T02:58:08;99.70;;;49.65;;
67508;SDS011;54354;44.724;11.284;2023-02-15T03:00:46;103.25;;;51.03;;
67508;SDS011;54354;44.724;11.284;2023-02-15T03:03:25;107.95;;;51.63;;
67508;SDS011;54354;44.724;11.284;2023-02-15T03:06:00;106.38;;;49.92;;
67508;SDS011;54354;44.724;11.284;2023-02-15T03:08:31;105.35;;;51.00;;
67508;SDS011;54354;44.724;11.284;2023-02-15T03:11:04;104.18;;;49.63;;
67508;SDS011;54354;44.724;11.284;2023-02-15T03:13:30;101.90;;;49.63;;
67508;SDS011;54354;44.724;11.284;2023-02-15T03:15:57;101.65;;;50.72;;
67508;SDS011;54354;44.724;11.284;2023-02-15T03:18:44;100.35;;;49.78;;
67508;SDS011;54354;44.724;11.284;2023-02-15T03:21:30;97.93;;;48.78;;
67508;SDS011;54354;44.724;11.284;2023-02-15T03:24:18;102.85;;;49.70;;
67508;SDS011;54354;44.724;11.284;2023-02-15T03:26:48;92.40;;;47.28;;
67508;SDS011;54354;44.724;11.284;2023-02-15T03:29:17;98.00;;;49.57;;
67508;SDS011;54354;44.724;11.284;2023-02-15T03:31:50;105.70;;;50.58;;
67508;SDS011;54354;44.724;11.284;2023-02-15T03:34:19;102.57;;;49.78;;
67508;SDS011;54354;44.724;11.284;2023-02-15T03:39:58;99.25;;;49.15;;
67508;SDS011;54354;44.724;11.284;2023-02-15T03:42:44;94.75;;;48.55;;
67508;SDS011;54354;44.724;11.284;2023-02-15T03:45:14;99.70;;;49.17;;
67508;SDS011;54354;44.724;11.284;2023-02-15T03:47:46;95.78;;;49.35;;
67508;SDS011;54354;44.724;11.284;2023-02-15T03:50:15;100.32;;;49.42;;
67508;SDS011;54354;44.724;11.284;2023-02-15T03:53:05;100.70;;;48.85;;
67508;SDS011;54354;44.724;11.284;2023-02-15T03:55:33;107.20;;;50.42;;
67508;SDS011;54354;44.724;11.284;2023-02-15T03:58:00;99.43;;;49.92;;
67508;SDS011;54354;44.724;11.284;2023-02-15T04:00:47;97.72;;;47.88;;
67508;SDS011;54354;44.724;11.284;2023-02-15T04:03:37;98.90;;;46.75;;
67508;SDS011;54354;44.724;11.284;2023-02-15T04:06:05;96.78;;;47.38;;
67508;SDS011;54354;44.724;11.284;2023-02-15T04:08:31;95.93;;;46.67;;
67508;SDS011;54354;44.724;11.284;2023-02-15T04:11:15;86.90;;;45.08;;
67508;SDS011;54354;44.724;11.284;2023-02-15T04:13:41;93.90;;;46.78;;
67508;SDS011;54354;44.724;11.284;2023-02-15T04:16:07;92.38;;;45.75;;
67508;SDS011;54354;44.724;11.284;2023-02-15T04:18:41;90.50;;;45.92;;
67508;SDS011;54354;44.724;11.284;2023-02-15T04:21:27;89.95;;;44.83;;
67508;SDS011;54354;44.724;11.284;2023-02-15T04:24:14;94.95;;;45.72;;
67508;SDS011;54354;44.724;11.284;2023-02-15T04:26:58;87.55;;;44.78;;
67508;SDS011;54354;44.724;11.284;2023-02-15T04:29:25;86.93;;;43.58;;
67508;SDS011;54354;44.724;11.284;2023-02-15T04:31:52;83.53;;;43.83;;
67508;SDS011;54354;44.724;11.284;2023-02-15T04:34:19;92.20;;;44.17;;
67508;SDS011;54354;44.724;11.284;2023-02-15T04:36:44;89.00;;;42.20;;
67508;SDS011;54354;44.724;11.284;2023-02-15T04:39:12;87.40;;;42.10;;
67508;SDS011;54354;44.724;11.284;2023-02-15T04:41:38;82.90;;;42.08;;
67508;SDS011;54354;44.724;11.284;2023-02-15T04:44:04;81.47;;;40.47;;
67508;SDS011;54354;44.724;11.284;2023-02-15T04:46:29;78.35;;;40.17;;
67508;SDS011;54354;44.724;11.284;2023-02-15T04:48:55;77.80;;;39.72;;
67508;SDS011;54354;44.724;11.284;2023-02-15T04:51:21;78.78;;;40.03;;
67508;SDS011;54354;44.724;11.284;2023-02-15T04:53:47;77.65;;;39.83;;
67508;SDS011;54354;44.724;11.284;2023-02-15T04:56:12;80.28;;;38.85;;
67508;SDS011;54354;44.724;11.284;2023-02-15T04:58:38;77.80;;;38.83;;
67508;SDS011;54354;44.724;11.284;2023-02-15T05:01:09;72.63;;;39.53;;
67508;SDS011;54354;44.724;11.284;2023-02-15T05:03:35;71.18;;;37.80;;
67508;SDS011;54354;44.724;11.284;2023-02-15T05:06:00;76.25;;;39.03;;
67508;SDS011;54354;44.724;11.284;2023-02-15T05:08:26;77.25;;;39.42;;
67508;SDS011;54354;44.724;11.284;2023-02-15T05:10:52;75.13;;;39.70;;
67508;SDS011;54354;44.724;11.284;2023-02-15T05:13:17;79.13;;;39.08;;
67508;SDS011;54354;44.724;11.284;2023-02-15T05:15:49;74.75;;;39.47;;
67508;SDS011;54354;44.724;11.284;2023-02-15T05:18:19;75.50;;;39.08;;
67508;SDS011;54354;44.724;11.284;2023-02-15T05:20:46;74.35;;;39.13;;
67508;SDS011;54354;44.724;11.284;2023-02-15T05:23:12;75.57;;;39.38;;
67508;SDS011;54354;44.724;11.284;2023-02-15T05:25:37;79.68;;;38.67;;
67508;SDS011;54354;44.724;11.284;2023-02-15T05:28:32;74.18;;;38.45;;
67508;SDS011;54354;44.724;11.284;2023-02-15T05:31:09;87.72;;;39.53;;
67508;SDS011;54354;44.724;11.284;2023-02-15T05:33:39;80.18;;;38.92;;
67508;SDS011;54354;44.724;11.284;2023-02-15T05:36:05;83.75;;;39.13;;
67508;SDS011;54354;44.724;11.284;2023-02-15T05:38:32;80.78;;;39.25;;
67508;SDS011;54354;44.724;11.284;2023-02-15T05:40:58;83.68;;;40.90;;
67508;SDS011;54354;44.724;11.284;2023-02-15T05:43:24;80.53;;;40.85;;
67508;SDS011;54354;44.724;11.284;2023-02-15T05:45:51;76.13;;;39.72;;
67508;SDS011;54354;44.724;11.284;2023-02-15T05:48:18;91.45;;;40.00;;
67508;SDS011;54354;44.724;11.284;2023-02-15T05:50:45;90.82;;;40.80;;
67508;SDS011;54354;44.724;11.284;2023-02-15T05:53:11;82.80;;;39.58;;
67508;SDS011;54354;44.724;11.284;2023-02-15T05:55:38;84.30;;;40.22;;
67508;SDS011;54354;44.724;11.284;2023-02-15T05:58:04;86.72;;;40.10;;
67508;SDS011;54354;44.724;11.284;2023-02-15T06:00:30;85.30;;;41.30;;
67508;SDS011;54354;44.724;11.284;2023-02-15T06:02:56;85.30;;;42.03;;
67508;SDS011;54354;44.724;11.284;2023-02-15T06:05:21;84.32;;;40.63;;
67508;SDS011;54354;44.724;11.284;2023-02-15T06:07:47;75.70;;;38.78;;
67508;SDS011;54354;44.724;11.284;2023-02-15T06:10:12;82.20;;;41.08;;
67508;SDS011;54354;44.724;11.284;2023-02-15T06:12:38;80.60;;;40.10;;
67508;SDS011;54354;44.724;11.284;2023-02-15T06:15:03;78.85;;;38.92;;
67508;SDS011;54354;44.724;11.284;2023-02-15T06:17:29;83.57;;;41.13;;
67508;SDS011;54354;44.724;11.284;2023-02-15T06:19:55;82.95;;;40.80;;
67508;SDS011;54354;44.724;11.284;2023-02-15T06:22:20;103.45;;;48.00;;
67508;SDS011;54354;44.724;11.284;2023-02-15T06:24:46;110.60;;;50.58;;
67508;SDS011;54354;44.724;11.284;2023-02-15T06:27:12;108.80;;;53.72;;
67508;SDS011;54354;44.724;11.284;2023-02-15T06:29:38;116.15;;;54.45;;
67508;SDS011;54354;44.724;11.284;2023-02-15T06:32:03;105.60;;;50.03;;
67508;SDS011;54354;44.724;11.284;2023-02-15T06:34:29;107.13;;;48.05;;
67508;SDS011;54354;44.724;11.284;2023-02-15T06:36:55;98.43;;;46.30;;
67508;SDS011;54354;44.724;11.284;2023-02-15T06:39:20;98.07;;;47.53;;
67508;SDS011;54354;44.724;11.284;2023-02-15T06:41:46;103.55;;;47.63;;
67508;SDS011;54354;44.724;11.284;2023-02-15T06:44:11;98.68;;;48.38;;
67508;SDS011;54354;44.724;11.284;2023-02-15T06:46:37;137.55;;;68.78;;
67508;SDS011;54354;44.724;11.284;2023-02-15T06:49:02;89.05;;;43.70;;
67508;SDS011;54354;44.724;11.284;2023-02-15T06:51:28;94.82;;;42.03;;
67508;SDS011;54354;44.724;11.284;2023-02-15T06:53:53;88.82;;;38.92;;
67508;SDS011;54354;44.724;11.284;2023-02-15T06:56:19;86.50;;;37.47;;
67508;SDS011;54354;44.724;11.284;2023-02-15T06:58:44;89.95;;;37.85;;
67508;SDS011;54354;44.724;11.284;2023-02-15T07:01:14;88.07;;;35.75;;
67508;SDS011;54354;44.724;11.284;2023-02-15T07:03:40;74.45;;;33.17;;
67508;SDS011;54354;44.724;11.284;2023-02-15T07:06:06;70.03;;;33.45;;
67508;SDS011;54354;44.724;11.284;2023-02-15T07:08:33;80.10;;;32.22;;
67508;SDS011;54354;44.724;11.284;2023-02-15T07:10:59;64.28;;;31.58;;
67508;SDS011;54354;44.724;11.284;2023-02-15T07:13:44;64.63;;;30.60;;
67508;SDS011;54354;44.724;11.284;2023-02-15T07:16:10;65.55;;;31.27;;
67508;SDS011;54354;44.724;11.284;2023-02-15T07:18:36;63.00;;;31.38;;
67508;SDS011;54354;44.724;11.284;2023-02-15T07:21:02;67.90;;;30.27;;
67508;SDS011;54354;44.724;11.284;2023-02-15T07:23:28;70.93;;;28.98;;
67508;SDS011;54354;44.724;11.284;2023-02-15T07:25:57;61.75;;;28.80;;
67508;SDS011;54354;44.724;11.284;2023-02-15T08:06:11;56.47;;;27.83;;
67508;SDS011;54354;44.724;11.284;2023-02-15T08:08:38;51.13;;;28.35;;
67508;SDS011;54354;44.724;11.284;2023-02-15T08:13:50;55.67;;;28.55;;
67508;SDS011;54354;44.724;11.284;2023-02-15T08:19:02;50.78;;;27.40;;
67508;SDS011;54354;44.724;11.284;2023-02-15T08:21:30;49.38;;;26.38;;
67508;SDS011;54354;44.724;11.284;2023-02-15T08:23:58;50.22;;;26.48;;
67508;SDS011;54354;44.724;11.284;2023-02-15T08:26:24;45.15;;;25.55;;
67508;SDS011;54354;44.724;11.284;2023-02-15T08:28:52;44.97;;;23.80;;
67508;SDS011;54354;44.724;11.284;2023-02-15T08:31:18;51.00;;;23.63;;
67508;SDS011;54354;44.724;11.284;2023-02-15T08:33:45;42.42;;;23.05;;
67508;SDS011;54354;44.724;11.284;2023-02-15T08:36:12;44.80;;;22.83;;
67508;SDS011;54354;44.724;11.284;2023-02-15T08:38:42;43.67;;;23.35;;
67508;SDS011;54354;44.724;11.284;2023-02-15T08:41:08;39.53;;;21.80;;
67508;SDS011;54354;44.724;11.284;2023-02-15T08:43:38;42.20;;;22.77;;
67508;SDS011;54354;44.724;11.284;2023-02-15T08:46:05;42.17;;;22.10;;
67508;SDS011;54354;44.724;11.284;2023-02-15T08:48:31;44.80;;;23.10;;
67508;SDS011;54354;44.724;11.284;2023-02-15T08:50:57;44.30;;;22.23;;
67508;SDS011;54354;44.724;11.284;2023-02-15T08:53:22;53.75;;;25.10;;
67508;SDS011;54354;44.724;11.284;2023-02-15T08:55:55;45.00;;;23.90;;
67508;SDS011;54354;44.724;11.284;2023-02-15T08:58:22;49.60;;;24.60;;
67508;SDS011;54354;44.724;11.284;2023-02-15T09:00:48;52.03;;;23.65;;
67508;SDS011;54354;44.724;11.284;2023-02-15T09:03:13;50.33;;;24.73;;
67508;SDS011;54354;44.724;11.284;2023-02-15T09:05:38;53.47;;;25.20;;
67508;SDS011;54354;44.724;11.284;2023-02-15T09:08:04;58.83;;;25.85;;
67508;SDS011;54354;44.724;11.284;2023-02-15T09:10:30;47.78;;;25.23;;
67508;SDS011;54354;44.724;11.284;2023-02-15T09:12:55;52.00;;;26.50;;
67508;SDS011;54354;44.724;11.284;2023-02-15T09:15:21;52.22;;;26.83;;
67508;SDS011;54354;44.724;11.284;2023-02-15T09:17:46;58.88;;;28.55;;
67508;SDS011;54354;44.724;11.284;2023-02-15T09:20:12;53.15;;;27.50;;
67508;SDS011;54354;44.724;11.284;2023-02-15T09:22:37;57.35;;;30.15;;
67508;SDS011;54354;44.724;11.284;2023-02-15T09:25:03;58.72;;;29.15;;
67508;SDS011;54354;44.724;11.284;2023-02-15T09:27:29;59.55;;;29.90;;
67508;SDS011;54354;44.724;11.284;2023-02-15T09:29:55;64.80;;;32.38;;
67508;SDS011;54354;44.724;11.284;2023-02-15T09:32:20;60.33;;;31.63;;
67508;SDS011;54354;44.724;11.284;2023-02-15T09:34:47;58.85;;;29.83;;
67508;SDS011;54354;44.724;11.284;2023-02-15T09:37:13;65.38;;;29.98;;
67508;SDS011;54354;44.724;11.284;2023-02-15T09:39:39;62.30;;;31.13;;
67508;SDS011;54354;44.724;11.284;2023-02-15T09:48:02;68.93;;;32.42;;
67508;SDS011;54354;44.724;11.284;2023-02-15T10:04:04;68.00;;;33.15;;
67508;SDS011;54354;44.724;11.284;2023-02-15T10:18:23;79.97;;;37.88;;
67508;SDS011;54354;44.724;11.284;2023-02-15T10:21:02;83.32;;;39.38;;
67508;SDS011;54354;44.724;11.284;2023-02-15T10:26:28;86.35;;;40.10;;
67508;SDS011;54354;44.724;11.284;2023-02-15T10:31:57;87.97;;;41.33;;
67508;SDS011;54354;44.724;11.284;2023-02-15T10:35:05;83.65;;;40.83;;
67508;SDS011;54354;44.724;11.284;2023-02-15T10:40:33;85.28;;;41.95;;
67508;SDS011;54354;44.724;11.284;2023-02-15T10:48:32;94.30;;;43.35;;
67508;SDS011;54354;44.724;11.284;2023-02-15T11:00:23;91.25;;;43.72;;
67508;SDS011;54354;44.724;11.284;2023-02-15T11:05:57;91.07;;;43.72;;
67508;SDS011;54354;44.724;11.284;2023-02-15T11:08:29;91.57;;;44.78;;
67508;SDS011;54354;44.724;11.284;2023-02-15T11:11:03;91.18;;;43.78;;
67508;SDS011;54354;44.724;11.284;2023-02-15T11:13:34;94.93;;;43.95;;
67508;SDS011;54354;44.724;11.284;2023-02-15T11:16:05;90.90;;;43.95;;
67508;SDS011;54354;44.724;11.284;2023-02-15T11:19:19;88.68;;;43.90;;
67508;SDS011;54354;44.724;11.284;2023-02-15T11:21:46;84.57;;;42.47;;
67508;SDS011;54354;44.724;11.284;2023-02-15T11:24:16;85.97;;;42.83;;
67508;SDS011;54354;44.724;11.284;2023-02-15T11:26:44;94.55;;;45.47;;
67508;SDS011;54354;44.724;11.284;2023-02-15T11:29:22;87.03;;;43.78;;
67508;SDS011;54354;44.724;11.284;2023-02-15T11:31:53;92.90;;;45.75;;
67508;SDS011;54354;44.724;11.284;2023-02-15T11:34:21;89.65;;;43.90;;
67508;SDS011;54354;44.724;11.284;2023-02-15T11:36:54;92.05;;;43.65;;
67508;SDS011;54354;44.724;11.284;2023-02-15T11:39:23;93.20;;;45.25;;
67508;SDS011;54354;44.724;11.284;2023-02-15T11:41:55;89.60;;;42.80;;
67508;SDS011;54354;44.724;11.284;2023-02-15T11:46:56;89.00;;;42.50;;
67508;SDS011;54354;44.724;11.284;2023-02-15T11:49:27;82.53;;;41.47;;
67508;SDS011;54354;44.724;11.284;2023-02-15T11:51:56;94.43;;;44.17;;
67508;SDS011;54354;44.724;11.284;2023-02-15T11:54:30;99.53;;;44.38;;
67508;SDS011;54354;44.724;11.284;2023-02-15T11:56:59;96.80;;;45.08;;
67508;SDS011;54354;44.724;11.284;2023-02-15T11:59:35;90.18;;;44.30;;
67508;SDS011;54354;44.724;11.284;2023-02-15T12:02:15;95.03;;;45.50;;
67508;SDS011;54354;44.724;11.284;2023-02-15T12:04:43;98.18;;;45.95;;
67508;SDS011;54354;44.724;11.284;2023-02-15T12:12:47;84.93;;;42.83;;
67508;SDS011;54354;44.724;11.284;2023-02-15T12:15:13;97.20;;;45.35;;
67508;SDS011;54354;44.724;11.284;2023-02-15T12:17:48;89.25;;;42.85;;
67508;SDS011;54354;44.724;11.284;2023-02-15T12:22:45;89.03;;;41.72;;
67508;SDS011;54354;44.724;11.284;2023-02-15T12:25:34;85.07;;;39.85;;
67508;SDS011;54354;44.724;11.284;2023-02-15T12:28:02;80.28;;;39.53;;
67508;SDS011;54354;44.724;11.284;2023-02-15T12:30:34;86.47;;;40.83;;
67508;SDS011;54354;44.724;11.284;2023-02-15T12:33:15;81.22;;;39.70;;
67508;SDS011;54354;44.724;11.284;2023-02-15T12:35:46;76.30;;;36.80;;
67508;SDS011;54354;44.724;11.284;2023-02-15T12:40:40;77.03;;;35.28;;
67508;SDS011;54354;44.724;11.284;2023-02-15T12:43:17;68.22;;;34.58;;
67508;SDS011;54354;44.724;11.284;2023-02-15T12:48:49;68.50;;;35.22;;
67508;SDS011;54354;44.724;11.284;2023-02-15T12:51:31;71.80;;;36.08;;
67508;SDS011;54354;44.724;11.284;2023-02-15T12:54:15;75.63;;;36.38;;
67508;SDS011;54354;44.724;11.284;2023-02-15T12:56:47;74.40;;;35.88;;
67508;SDS011;54354;44.724;11.284;2023-02-15T12:59:13;65.28;;;34.63;;
67508;SDS011;54354;44.724;11.284;2023-02-15T13:01:45;69.80;;;34.28;;
67508;SDS011;54354;44.724;11.284;2023-02-15T13:06:49;67.93;;;34.60;;
67508;SDS011;54354;44.724;11.284;2023-02-15T13:09:35;69.43;;;34.25;;
67508;SDS011;54354;44.724;11.284;2023-02-15T13:12:16;68.30;;;35.47;;
67508;SDS011;54354;44.724;11.284;2023-02-15T13:14:45;66.15;;;34.75;;
67508;SDS011;54354;44.724;11.284;2023-02-15T13:17:13;69.72;;;35.30;;
67508;SDS011;54354;44.724;11.284;2023-02-15T13:20:03;71.72;;;36.15;;
67508;SDS011;54354;44.724;11.284;2023-02-15T13:22:33;64.28;;;33.50;;
67508;SDS011;54354;44.724;11.284;2023-02-15T13:27:48;59.42;;;33.25;;
67508;SDS011;54354;44.724;11.284;2023-02-15T13:35:38;68.50;;;35.55;;
67508;SDS011;54354;44.724;11.284;2023-02-15T13:38:56;65.78;;;34.97;;
67508;SDS011;54354;44.724;11.284;2023-02-15T13:41:09;69.30;;;35.65;;
67508;SDS011;54354;44.724;11.284;2023-02-15T13:46:45;69.22;;;35.45;;
67508;SDS011;54354;44.724;11.284;2023-02-15T14:03:07;68.55;;;35.92;;
67508;SDS011;54354;44.724;11.284;2023-02-15T14:05:30;69.78;;;34.88;;
67508;SDS011;54354;44.724;11.284;2023-02-15T14:16:30;75.97;;;36.38;;
67508;SDS011;54354;44.724;11.284;2023-02-15T14:21:44;67.10;;;35.03;;
67508;SDS011;54354;44.724;11.284;2023-02-15T14:32:30;61.75;;;33.13;;
67508;SDS011;54354;44.724;11.284;2023-02-15T14:35:16;67.75;;;33.47;;
67508;SDS011;54354;44.724;11.284;2023-02-15T14:37:52;60.17;;;31.50;;
67508;SDS011;54354;44.724;11.284;2023-02-15T14:48:45;62.10;;;31.67;;
67508;SDS011;54354;44.724;11.284;2023-02-15T14:56:41;55.83;;;30.20;;
67508;SDS011;54354;44.724;11.284;2023-02-15T14:59:13;63.95;;;34.10;;
67508;SDS011;54354;44.724;11.284;2023-02-15T15:01:41;65.15;;;32.35;;
67508;SDS011;54354;44.724;11.284;2023-02-15T15:07:00;68.53;;;33.90;;
67508;SDS011;54354;44.724;11.284;2023-02-15T15:09:39;62.38;;;32.80;;
67508;SDS011;54354;44.724;11.284;2023-02-15T15:14:51;59.75;;;31.90;;
67508;SDS011;54354;44.724;11.284;2023-02-15T15:22:43;68.90;;;34.95;;
67508;SDS011;54354;44.724;11.284;2023-02-15T15:25:40;68.70;;;33.88;;
67508;SDS011;54354;44.724;11.284;2023-02-15T15:27:57;59.80;;;31.55;;
67508;SDS011;54354;44.724;11.284;2023-02-15T15:49:19;66.07;;;33.25;;
67508;SDS011;54354;44.724;11.284;2023-02-15T15:51:46;63.88;;;31.38;;
67508;SDS011;54354;44.724;11.284;2023-02-15T15:54:14;68.20;;;33.28;;
67508;SDS011;54354;44.724;11.284;2023-02-15T15:56:43;68.20;;;33.47;;
67508;SDS011;54354;44.724;11.284;2023-02-15T16:01:42;66.78;;;32.60;;
67508;SDS011;54354;44.724;11.284;2023-02-15T16:04:10;61.05;;;31.67;;
67508;SDS011;54354;44.724;11.284;2023-02-15T16:06:38;67.00;;;32.28;;
67508;SDS011;54354;44.724;11.284;2023-02-15T16:09:18;61.85;;;30.52;;
67508;SDS011;54354;44.724;11.284;2023-02-15T16:11:58;68.07;;;34.35;;
67508;SDS011;54354;44.724;11.284;2023-02-15T16:14:31;56.10;;;30.88;;
67508;SDS011;54354;44.724;11.284;2023-02-15T16:17:01;66.45;;;31.88;;
67508;SDS011;54354;44.724;11.284;2023-02-15T16:21:59;62.95;;;31.10;;
67508;SDS011;54354;44.724;11.284;2023-02-15T16:27:40;66.13;;;32.25;;
67508;SDS011;54354;44.724;11.284;2023-02-15T16:30:18;79.28;;;34.45;;
67508;SDS011;54354;44.724;11.284;2023-02-15T16:33:12;80.88;;;33.17;;
67508;SDS011;54354;44.724;11.284;2023-02-15T16:35:41;74.85;;;33.92;;
67508;SDS011;54354;44.724;11.284;2023-02-15T16:41:07;75.20;;;33.72;;
67508;SDS011;54354;44.724;11.284;2023-02-15T16:43:34;73.28;;;33.15;;
67508;SDS011;54354;44.724;11.284;2023-02-15T16:46:12;71.68;;;33.80;;
67508;SDS011;54354;44.724;11.284;2023-02-15T16:48:43;74.72;;;32.92;;
67508;SDS011;54354;44.724;11.284;2023-02-15T16:51:18;73.55;;;34.60;;
67508;SDS011;54354;44.724;11.284;2023-02-15T16:53:49;66.38;;;32.53;;
67508;SDS011;54354;44.724;11.284;2023-02-15T16:56:21;69.88;;;34.55;;
67508;SDS011;54354;44.724;11.284;2023-02-15T16:58:53;71.10;;;35.00;;
67508;SDS011;54354;44.724;11.284;2023-02-15T17:01:21;70.70;;;35.35;;
67508;SDS011;54354;44.724;11.284;2023-02-15T17:03:50;74.03;;;35.08;;
67508;SDS011;54354;44.724;11.284;2023-02-15T17:06:18;79.30;;;36.13;;
67508;SDS011;54354;44.724;11.284;2023-02-15T17:08:46;75.22;;;35.67;;
67508;SDS011;54354;44.724;11.284;2023-02-15T17:11:22;84.03;;;36.10;;
67508;SDS011;54354;44.724;11.284;2023-02-15T17:16:31;73.70;;;35.42;;
67508;SDS011;54354;44.724;11.284;2023-02-15T17:18:59;84.90;;;35.28;;
67508;SDS011;54354;44.724;11.284;2023-02-15T17:21:35;72.85;;;35.05;;
67508;SDS011;54354;44.724;11.284;2023-02-15T17:24:05;81.43;;;36.00;;
67508;SDS011;54354;44.724;11.284;2023-02-15T17:26:31;78.80;;;36.88;;
67508;SDS011;54354;44.724;11.284;2023-02-15T17:29:01;82.95;;;36.65;;
67508;SDS011;54354;44.724;11.284;2023-02-15T17:31:31;81.70;;;36.97;;
67508;SDS011;54354;44.724;11.284;2023-02-15T17:34:01;108.90;;;38.65;;
67508;SDS011;54354;44.724;11.284;2023-02-15T17:36:27;85.72;;;37.42;;
67508;SDS011;54354;44.724;11.284;2023-02-15T17:41:28;77.90;;;35.55;;
67508;SDS011;54354;44.724;11.284;2023-02-15T17:43:59;84.50;;;37.05;;
67508;SDS011;54354;44.724;11.284;2023-02-15T17:46:25;92.45;;;38.63;;
67508;SDS011;54354;44.724;11.284;2023-02-15T17:48:56;79.65;;;39.10;;
67508;SDS011;54354;44.724;11.284;2023-02-15T17:51:23;78.28;;;37.33;;
67508;SDS011;54354;44.724;11.284;2023-02-15T17:53:48;80.10;;;39.20;;
67508;SDS011;54354;44.724;11.284;2023-02-15T17:56:33;82.93;;;40.83;;
67508;SDS011;54354;44.724;11.284;2023-02-15T17:59:00;88.45;;;40.88;;
67508;SDS011;54354;44.724;11.284;2023-02-15T18:01:25;89.38;;;41.50;;
67508;SDS011;54354;44.724;11.284;2023-02-15T18:04:10;92.95;;;43.10;;
67508;SDS011;54354;44.724;11.284;2023-02-15T18:06:57;102.43;;;44.55;;
67508;SDS011;54354;44.724;11.284;2023-02-15T18:09:41;91.07;;;43.28;;
67508;SDS011;54354;44.724;11.284;2023-02-15T18:12:27;98.43;;;45.25;;
67508;SDS011;54354;44.724;11.284;2023-02-15T18:15:00;90.68;;;44.03;;
67508;SDS011;54354;44.724;11.284;2023-02-15T18:17:27;94.80;;;44.73;;
67508;SDS011;54354;44.724;11.284;2023-02-15T18:19:57;100.18;;;47.28;;
67508;SDS011;54354;44.724;11.284;2023-02-15T18:22:22;108.40;;;45.25;;
67508;SDS011;54354;44.724;11.284;2023-02-15T18:24:48;102.95;;;44.35;;
67508;SDS011;54354;44.724;11.284;2023-02-15T18:27:14;107.10;;;43.58;;
67508;SDS011;54354;44.724;11.284;2023-02-15T18:29:41;101.45;;;45.13;;
67508;SDS011;54354;44.724;11.284;2023-02-15T18:32:14;98.47;;;41.92;;
67508;SDS011;54354;44.724;11.284;2023-02-15T18:34:42;101.53;;;44.22;;
67508;SDS011;54354;44.724;11.284;2023-02-15T18:37:13;117.90;;;44.67;;
67508;SDS011;54354;44.724;11.284;2023-02-15T18:39:47;98.53;;;44.92;;